sensor_id;sensor_type;location;lat;lon;timestamp;P1;durP1;ratioP1;P2;durP2;ratioP2
6513;SDS011;3290;47.716;9.070;2024-01-15T00:01:02;13.07;;;6.20;;
6513;SDS011;3290;47.716;9.070;2024-01-15T00:03:28;19.00;;;7.73;;
6513;SDS011;3290;47.716;9.070;2024-01-15T00:05:53;15.83;;;8.20;;
6513;SDS011;3290;47.716;9.070;2024-01-15T00:08:19;23.30;;;6.50;;
6513;SDS011;3290;47.716;9.070;2024-01-15T00:10:44;12.57;;;7.07;;
6513;SDS011;3290;47.716;9.070;2024-01-15T00:13:09;13.37;;;7.00;;
6513;SDS011;3290;47.716;9.070;2024-01-15T00:15:35;13.00;;;7.07;;
6513;SDS011;3290;47.716;9.070;2024-01-15T00:18:00;9.47;;;5.03;;
6513;SDS011;3290;47.716;9.070;2024-01-15T00:20:25;12.13;;;4.87;;
6513;SDS011;3290;47.716;9.070;2024-01-15T00:22:51;14.33;;;5.70;;
6513;SDS011;3290;47.716;9.070;2024-01-15T00:25:16;8.10;;;5.00;;
6513;SDS011;3290;47.716;9.070;2024-01-15T00:27:42;10.80;;;6.10;;
6513;SDS011;3290;47.716;9.070;2024-01-15T00:30:08;13.50;;;5.37;;
6513;SDS011;3290;47.716;9.070;2024-01-15T00:32:34;9.10;;;4.97;;
6513;SDS011;3290;47.716;9.070;2024-01-15T00:34:59;10.53;;;5.30;;
6513;SDS011;3290;47.716;9.070;2024-01-15T00:37:24;11.00;;;5.33;;
6513;SDS011;3290;47.716;9.070;2024-01-15T00:39:50;10.53;;;6.00;;
6513;SDS011;3290;47.716;9.070;2024-01-15T00:42:15;13.07;;;4.60;;
6513;SDS011;3290;47.716;9.070;2024-01-15T00:44:41;10.30;;;4.93;;
6513;SDS011;3290;47.716;9.070;2024-01-15T00:47:07;6.90;;;3.93;;
6513;SDS011;3290;47.716;9.070;2024-01-15T00:49:32;11.33;;;5.70;;
6513;SDS011;3290;47.716;9.070;2024-01-15T00:51:58;5.80;;;4.13;;
6513;SDS011;3290;47.716;9.070;2024-01-15T00:54:23;11.13;;;5.23;;
6513;SDS011;3290;47.716;9.070;2024-01-15T00:56:48;8.47;;;4.90;;
6513;SDS011;3290;47.716;9.070;2024-01-15T00:59:14;8.43;;;5.10;;
6513;SDS011;3290;47.716;9.070;2024-01-15T01:01:42;12.47;;;5.60;;
6513;SDS011;3290;47.716;9.070;2024-01-15T01:04:09;8.43;;;4.80;;
6513;SDS011;3290;47.716;9.070;2024-01-15T01:06:34;10.03;;;4.70;;
6513;SDS011;3290;47.716;9.070;2024-01-15T01:09:00;8.50;;;4.57;;
6513;SDS011;3290;47.716;9.070;2024-01-15T01:11:25;8.60;;;4.47;;
6513;SDS011;3290;47.716;9.070;2024-01-15T01:13:51;9.30;;;5.00;;
6513;SDS011;3290;47.716;9.070;2024-01-15T01:16:16;10.47;;;4.40;;
6513;SDS011;3290;47.716;9.070;2024-01-15T01:18:42;10.37;;;4.83;;
6513;SDS011;3290;47.716;9.070;2024-01-15T01:21:07;8.60;;;4.77;;
6513;SDS011;3290;47.716;9.070;2024-01-15T01:23:33;8.87;;;4.00;;
6513;SDS011;3290;47.716;9.070;2024-01-15T01:25:58;10.37;;;5.70;;
6513;SDS011;3290;47.716;9.070;2024-01-15T01:28:23;7.77;;;4.27;;
6513;SDS011;3290;47.716;9.070;2024-01-15T01:30:49;8.27;;;4.30;;
6513;SDS011;3290;47.716;9.070;2024-01-15T01:33:15;6.37;;;4.00;;
6513;SDS011;3290;47.716;9.070;2024-01-15T01:35:40;8.70;;;5.13;;
6513;SDS011;3290;47.716;9.070;2024-01-15T01:38:06;7.23;;;4.17;;
6513;SDS011;3290;47.716;9.070;2024-01-15T01:40:31;12.50;;;5.50;;
6513;SDS011;3290;47.716;9.070;2024-01-15T01:42:57;8.40;;;4.40;;
6513;SDS011;3290;47.716;9.070;2024-01-15T01:45:22;9.77;;;4.87;;
6513;SDS011;3290;47.716;9.070;2024-01-15T01:47:47;12.37;;;5.07;;
6513;SDS011;3290;47.716;9.070;2024-01-15T01:50:13;15.40;;;4.43;;
6513;SDS011;3290;47.716;9.070;2024-01-15T01:52:39;10.13;;;5.17;;
6513;SDS011;3290;47.716;9.070;2024-01-15T01:55:06;10.63;;;4.80;;
6513;SDS011;3290;47.716;9.070;2024-01-15T01:57:34;11.77;;;5.27;;
6513;SDS011;3290;47.716;9.070;2024-01-15T02:00:00;8.17;;;4.50;;
6513;SDS011;3290;47.716;9.070;2024-01-15T02:02:28;9.37;;;5.03;;
6513;SDS011;3290;47.716;9.070;2024-01-15T02:04:54;7.33;;;4.33;;
6513;SDS011;3290;47.716;9.070;2024-01-15T02:07:20;8.57;;;4.60;;
6513;SDS011;3290;47.716;9.070;2024-01-15T02:09:46;8.50;;;4.63;;
6513;SDS011;3290;47.716;9.070;2024-01-15T02:12:11;6.60;;;4.43;;
6513;SDS011;3290;47.716;9.070;2024-01-15T02:14:37;8.90;;;4.53;;
6513;SDS011;3290;47.716;9.070;2024-01-15T02:17:02;7.57;;;4.33;;
6513;SDS011;3290;47.716;9.070;2024-01-15T02:19:27;12.03;;;5.47;;
6513;SDS011;3290;47.716;9.070;2024-01-15T02:21:53;10.27;;;5.20;;
6513;SDS011;3290;47.716;9.070;2024-01-15T02:24:18;12.07;;;5.83;;
6513;SDS011;3290;47.716;9.070;2024-01-15T02:26:44;8.50;;;5.00;;
6513;SDS011;3290;47.716;9.070;2024-01-15T02:29:09;12.33;;;6.17;;
6513;SDS011;3290;47.716;9.070;2024-01-15T02:31:35;13.73;;;5.70;;
6513;SDS011;3290;47.716;9.070;2024-01-15T02:34:01;13.83;;;6.27;;
6513;SDS011;3290;47.716;9.070;2024-01-15T02:36:27;19.03;;;6.53;;
6513;SDS011;3290;47.716;9.070;2024-01-15T02:38:52;13.73;;;6.30;;
6513;SDS011;3290;47.716;9.070;2024-01-15T02:41:17;11.23;;;5.80;;
6513;SDS011;3290;47.716;9.070;2024-01-15T02:43:43;10.97;;;5.87;;
6513;SDS011;3290;47.716;9.070;2024-01-15T02:46:08;17.90;;;6.57;;
6513;SDS011;3290;47.716;9.070;2024-01-15T02:48:33;15.10;;;6.63;;
6513;SDS011;3290;47.716;9.070;2024-01-15T02:51:02;12.10;;;6.40;;
6513;SDS011;3290;47.716;9.070;2024-01-15T02:53:28;11.40;;;6.10;;
6513;SDS011;3290;47.716;9.070;2024-01-15T02:55:53;12.80;;;6.30;;
6513;SDS011;3290;47.716;9.070;2024-01-15T02:58:18;14.37;;;7.57;;
6513;SDS011;3290;47.716;9.070;2024-01-15T03:00:44;13.53;;;6.97;;
6513;SDS011;3290;47.716;9.070;2024-01-15T03:03:09;22.83;;;7.27;;
6513;SDS011;3290;47.716;9.070;2024-01-15T03:05:34;17.70;;;8.50;;
6513;SDS011;3290;47.716;9.070;2024-01-15T03:08:00;17.53;;;8.87;;
6513;SDS011;3290;47.716;9.070;2024-01-15T03:10:25;18.53;;;8.77;;
6513;SDS011;3290;47.716;9.070;2024-01-15T03:12:50;19.50;;;7.90;;
6513;SDS011;3290;47.716;9.070;2024-01-15T03:15:16;18.30;;;8.53;;
6513;SDS011;3290;47.716;9.070;2024-01-15T03:17:43;19.40;;;8.10;;
6513;SDS011;3290;47.716;9.070;2024-01-15T03:20:08;19.77;;;8.60;;
6513;SDS011;3290;47.716;9.070;2024-01-15T03:22:34;17.27;;;7.50;;
6513;SDS011;3290;47.716;9.070;2024-01-15T03:24:59;81.30;;;24.33;;
6513;SDS011;3290;47.716;9.070;2024-01-15T03:27:25;38.60;;;14.53;;
6513;SDS011;3290;47.716;9.070;2024-01-15T03:29:51;24.43;;;10.53;;
6513;SDS011;3290;47.716;9.070;2024-01-15T03:32:16;21.60;;;9.63;;
6513;SDS011;3290;47.716;9.070;2024-01-15T03:34:42;35.60;;;10.57;;
6513;SDS011;3290;47.716;9.070;2024-01-15T03:37:07;99.17;;;29.93;;
6513;SDS011;3290;47.716;9.070;2024-01-15T03:39:32;38.53;;;15.70;;
6513;SDS011;3290;47.716;9.070;2024-01-15T03:41:58;21.60;;;9.90;;
6513;SDS011;3290;47.716;9.070;2024-01-15T03:44:23;17.37;;;7.33;;
6513;SDS011;3290;47.716;9.070;2024-01-15T03:46:49;16.20;;;7.60;;
6513;SDS011;3290;47.716;9.070;2024-01-15T03:49:14;15.17;;;6.43;;
6513;SDS011;3290;47.716;9.070;2024-01-15T03:51:40;24.53;;;9.70;;
6513;SDS011;3290;47.716;9.070;2024-01-15T03:54:05;28.80;;;11.03;;
6513;SDS011;3290;47.716;9.070;2024-01-15T03:56:30;18.93;;;8.60;;
6513;SDS011;3290;47.716;9.070;2024-01-15T03:58:56;17.43;;;7.83;;
6513;SDS011;3290;47.716;9.070;2024-01-15T04:01:21;16.13;;;7.63;;
6513;SDS011;3290;47.716;9.070;2024-01-15T04:03:46;16.60;;;7.83;;
6513;SDS011;3290;47.716;9.070;2024-01-15T04:06:12;13.17;;;5.83;;
6513;SDS011;3290;47.716;9.070;2024-01-15T04:08:37;18.80;;;7.23;;
6513;SDS011;3290;47.716;9.070;2024-01-15T04:11:02;19.00;;;7.50;;
6513;SDS011;3290;47.716;9.070;2024-01-15T04:13:30;17.47;;;7.43;;
6513;SDS011;3290;47.716;9.070;2024-01-15T04:15:57;15.63;;;6.97;;
6513;SDS011;3290;47.716;9.070;2024-01-15T04:18:22;15.23;;;7.00;;
6513;SDS011;3290;47.716;9.070;2024-01-15T04:20:48;15.57;;;6.57;;
6513;SDS011;3290;47.716;9.070;2024-01-15T04:23:13;17.60;;;8.00;;
6513;SDS011;3290;47.716;9.070;2024-01-15T04:25:38;15.13;;;6.37;;
6513;SDS011;3290;47.716;9.070;2024-01-15T04:28:07;14.17;;;6.67;;
6513;SDS011;3290;47.716;9.070;2024-01-15T04:30:33;17.30;;;7.77;;
6513;SDS011;3290;47.716;9.070;2024-01-15T04:32:58;18.40;;;7.63;;
6513;SDS011;3290;47.716;9.070;2024-01-15T04:35:24;14.87;;;7.70;;
6513;SDS011;3290;47.716;9.070;2024-01-15T04:37:49;21.37;;;8.63;;
6513;SDS011;3290;47.716;9.070;2024-01-15T04:40:14;18.90;;;7.10;;
6513;SDS011;3290;47.716;9.070;2024-01-15T04:42:40;18.93;;;8.30;;
6513;SDS011;3290;47.716;9.070;2024-01-15T04:45:05;22.33;;;8.43;;
6513;SDS011;3290;47.716;9.070;2024-01-15T04:47:31;11.27;;;5.00;;
6513;SDS011;3290;47.716;9.070;2024-01-15T04:49:56;21.57;;;7.10;;
6513;SDS011;3290;47.716;9.070;2024-01-15T04:52:21;16.80;;;7.77;;
6513;SDS011;3290;47.716;9.070;2024-01-15T04:54:47;20.00;;;9.40;;
6513;SDS011;3290;47.716;9.070;2024-01-15T04:57:12;11.27;;;5.40;;
6513;SDS011;3290;47.716;9.070;2024-01-15T04:59:37;17.37;;;7.00;;
6513;SDS011;3290;47.716;9.070;2024-01-15T05:02:03;23.50;;;8.80;;
6513;SDS011;3290;47.716;9.070;2024-01-15T05:04:28;17.93;;;7.53;;
6513;SDS011;3290;47.716;9.070;2024-01-15T05:06:54;20.93;;;7.37;;
6513;SDS011;3290;47.716;9.070;2024-01-15T05:09:20;20.80;;;9.60;;
6513;SDS011;3290;47.716;9.070;2024-01-15T05:11:45;18.80;;;7.27;;
6513;SDS011;3290;47.716;9.070;2024-01-15T05:14:10;17.83;;;7.80;;
6513;SDS011;3290;47.716;9.070;2024-01-15T05:16:39;15.50;;;5.60;;
6513;SDS011;3290;47.716;9.070;2024-01-15T05:19:06;18.33;;;8.10;;
6513;SDS011;3290;47.716;9.070;2024-01-15T05:21:32;17.93;;;7.40;;
6513;SDS011;3290;47.716;9.070;2024-01-15T05:23:57;20.83;;;7.70;;
6513;SDS011;3290;47.716;9.070;2024-01-15T05:26:23;16.57;;;7.47;;
6513;SDS011;3290;47.716;9.070;2024-01-15T05:28:48;23.50;;;8.60;;
6513;SDS011;3290;47.716;9.070;2024-01-15T05:31:13;20.00;;;6.80;;
6513;SDS011;3290;47.716;9.070;2024-01-15T05:33:39;27.10;;;7.80;;
6513;SDS011;3290;47.716;9.070;2024-01-15T05:36:05;18.47;;;6.87;;
6513;SDS011;3290;47.716;9.070;2024-01-15T05:38:31;22.90;;;8.40;;
6513;SDS011;3290;47.716;9.070;2024-01-15T05:40:56;19.93;;;8.40;;
6513;SDS011;3290;47.716;9.070;2024-01-15T05:43:21;20.93;;;9.60;;
6513;SDS011;3290;47.716;9.070;2024-01-15T05:45:47;21.17;;;8.50;;
6513;SDS011;3290;47.716;9.070;2024-01-15T05:48:12;16.03;;;7.40;;
6513;SDS011;3290;47.716;9.070;2024-01-15T05:50:38;19.73;;;7.20;;
6513;SDS011;3290;47.716;9.070;2024-01-15T05:53:03;20.33;;;7.73;;
6513;SDS011;3290;47.716;9.070;2024-01-15T05:55:29;19.23;;;7.67;;
6513;SDS011;3290;47.716;9.070;2024-01-15T05:57:54;17.83;;;8.33;;
6513;SDS011;3290;47.716;9.070;2024-01-15T06:00:20;25.07;;;8.00;;
6513;SDS011;3290;47.716;9.070;2024-01-15T06:02:45;13.50;;;5.80;;
6513;SDS011;3290;47.716;9.070;2024-01-15T06:05:11;20.17;;;7.63;;
6513;SDS011;3290;47.716;9.070;2024-01-15T06:07:36;22.70;;;8.37;;
6513;SDS011;3290;47.716;9.070;2024-01-15T06:10:02;16.87;;;7.53;;
6513;SDS011;3290;47.716;9.070;2024-01-15T06:12:27;17.90;;;7.23;;
6513;SDS011;3290;47.716;9.070;2024-01-15T06:14:53;17.40;;;7.77;;
6513;SDS011;3290;47.716;9.070;2024-01-15T06:17:18;19.83;;;7.57;;
6513;SDS011;3290;47.716;9.070;2024-01-15T06:19:44;19.33;;;7.57;;
6513;SDS011;3290;47.716;9.070;2024-01-15T06:22:09;23.30;;;8.20;;
6513;SDS011;3290;47.716;9.070;2024-01-15T06:24:34;20.07;;;7.53;;
6513;SDS011;3290;47.716;9.070;2024-01-15T06:27:00;19.40;;;6.37;;
6513;SDS011;3290;47.716;9.070;2024-01-15T06:29:25;19.40;;;6.03;;
6513;SDS011;3290;47.716;9.070;2024-01-15T06:31:54;13.20;;;6.63;;
6513;SDS011;3290;47.716;9.070;2024-01-15T06:34:19;20.47;;;8.20;;
6513;SDS011;3290;47.716;9.070;2024-01-15T06:36:45;16.90;;;6.17;;
6513;SDS011;3290;47.716;9.070;2024-01-15T06:39:10;11.37;;;4.67;;
6513;SDS011;3290;47.716;9.070;2024-01-15T06:41:36;12.77;;;4.30;;
6513;SDS011;3290;47.716;9.070;2024-01-15T06:44:11;17.40;;;7.43;;
6513;SDS011;3290;47.716;9.070;2024-01-15T06:46:43;18.37;;;5.83;;
6513;SDS011;3290;47.716;9.070;2024-01-15T06:49:09;17.27;;;6.60;;
6513;SDS011;3290;47.716;9.070;2024-01-15T06:51:35;14.70;;;7.13;;
6513;SDS011;3290;47.716;9.070;2024-01-15T06:54:01;10.93;;;5.57;;
6513;SDS011;3290;47.716;9.070;2024-01-15T06:56:27;10.63;;;5.67;;
6513;SDS011;3290;47.716;9.070;2024-01-15T06:58:52;16.70;;;6.30;;
6513;SDS011;3290;47.716;9.070;2024-01-15T07:01:17;9.43;;;3.93;;
6513;SDS011;3290;47.716;9.070;2024-01-15T07:03:43;8.00;;;4.90;;
6513;SDS011;3290;47.716;9.070;2024-01-15T07:06:08;16.33;;;5.23;;
6513;SDS011;3290;47.716;9.070;2024-01-15T07:08:33;8.30;;;3.57;;
6513;SDS011;3290;47.716;9.070;2024-01-15T07:10:59;14.30;;;6.93;;
6513;SDS011;3290;47.716;9.070;2024-01-15T07:13:24;15.27;;;6.50;;
6513;SDS011;3290;47.716;9.070;2024-01-15T07:15:49;18.30;;;6.80;;
6513;SDS011;3290;47.716;9.070;2024-01-15T07:18:15;21.80;;;8.67;;
6513;SDS011;3290;47.716;9.070;2024-01-15T07:20:40;18.43;;;6.17;;
6513;SDS011;3290;47.716;9.070;2024-01-15T07:23:06;17.47;;;6.07;;
6513;SDS011;3290;47.716;9.070;2024-01-15T07:25:32;9.90;;;4.83;;
6513;SDS011;3290;47.716;9.070;2024-01-15T07:27:57;11.53;;;5.33;;
6513;SDS011;3290;47.716;9.070;2024-01-15T07:30:23;17.93;;;6.37;;
6513;SDS011;3290;47.716;9.070;2024-01-15T07:32:48;16.27;;;6.27;;
6513;SDS011;3290;47.716;9.070;2024-01-15T07:35:14;15.13;;;6.43;;
6513;SDS011;3290;47.716;9.070;2024-01-15T07:37:41;13.43;;;5.07;;
6513;SDS011;3290;47.716;9.070;2024-01-15T07:40:07;14.73;;;5.40;;
6513;SDS011;3290;47.716;9.070;2024-01-15T07:42:33;14.67;;;5.30;;
6513;SDS011;3290;47.716;9.070;2024-01-15T07:45:03;19.77;;;7.90;;
6513;SDS011;3290;47.716;9.070;2024-01-15T07:47:29;18.40;;;8.57;;
6513;SDS011;3290;47.716;9.070;2024-01-15T07:49:54;13.43;;;5.10;;
6513;SDS011;3290;47.716;9.070;2024-01-15T07:52:20;15.50;;;7.03;;
6513;SDS011;3290;47.716;9.070;2024-01-15T07:54:46;16.27;;;6.57;;
6513;SDS011;3290;47.716;9.070;2024-01-15T07:57:11;17.50;;;7.07;;
6513;SDS011;3290;47.716;9.070;2024-01-15T07:59:36;22.93;;;7.37;;
6513;SDS011;3290;47.716;9.070;2024-01-15T08:02:02;21.13;;;8.20;;
6513;SDS011;3290;47.716;9.070;2024-01-15T08:04:28;16.20;;;6.93;;
6513;SDS011;3290;47.716;9.070;2024-01-15T08:06:53;18.80;;;7.90;;
6513;SDS011;3290;47.716;9.070;2024-01-15T08:09:19;18.70;;;7.40;;
6513;SDS011;3290;47.716;9.070;2024-01-15T08:11:44;17.63;;;7.20;;
6513;SDS011;3290;47.716;9.070;2024-01-15T08:14:10;22.00;;;8.30;;
6513;SDS011;3290;47.716;9.070;2024-01-15T08:16:36;17.50;;;7.97;;
6513;SDS011;3290;47.716;9.070;2024-01-15T08:19:02;16.70;;;7.40;;
6513;SDS011;3290;47.716;9.070;2024-01-15T08:21:27;16.13;;;6.47;;
6513;SDS011;3290;47.716;9.070;2024-01-15T08:23:57;27.70;;;9.80;;
6513;SDS011;3290;47.716;9.070;2024-01-15T08:26:22;22.90;;;8.47;;
6513;SDS011;3290;47.716;9.070;2024-01-15T08:28:48;19.53;;;7.03;;
6513;SDS011;3290;47.716;9.070;2024-01-15T08:31:13;11.77;;;5.80;;
6513;SDS011;3290;47.716;9.070;2024-01-15T08:33:39;33.13;;;12.03;;
6513;SDS011;3290;47.716;9.070;2024-01-15T08:36:04;28.53;;;8.80;;
6513;SDS011;3290;47.716;9.070;2024-01-15T08:38:29;26.03;;;8.50;;
6513;SDS011;3290;47.716;9.070;2024-01-15T08:40:55;18.63;;;7.60;;
6513;SDS011;3290;47.716;9.070;2024-01-15T08:43:23;13.07;;;6.97;;
6513;SDS011;3290;47.716;9.070;2024-01-15T08:45:49;16.73;;;6.53;;
6513;SDS011;3290;47.716;9.070;2024-01-15T08:48:14;31.97;;;10.20;;
6513;SDS011;3290;47.716;9.070;2024-01-15T08:50:40;8.77;;;4.87;;
6513;SDS011;3290;47.716;9.070;2024-01-15T08:53:05;34.87;;;10.60;;
6513;SDS011;3290;47.716;9.070;2024-01-15T08:55:30;23.47;;;9.80;;
6513;SDS011;3290;47.716;9.070;2024-01-15T08:57:56;17.43;;;7.97;;
6513;SDS011;3290;47.716;9.070;2024-01-15T09:00:21;13.73;;;7.37;;
6513;SDS011;3290;47.716;9.070;2024-01-15T09:02:46;11.17;;;4.90;;
6513;SDS011;3290;47.716;9.070;2024-01-15T09:05:12;18.83;;;6.67;;
6513;SDS011;3290;47.716;9.070;2024-01-15T09:07:37;22.50;;;8.53;;
6513;SDS011;3290;47.716;9.070;2024-01-15T09:10:02;6.93;;;3.23;;
6513;SDS011;3290;47.716;9.070;2024-01-15T09:12:28;14.73;;;6.00;;
6513;SDS011;3290;47.716;9.070;2024-01-15T09:14:54;13.50;;;6.33;;
6513;SDS011;3290;47.716;9.070;2024-01-15T09:17:20;17.70;;;6.77;;
6513;SDS011;3290;47.716;9.070;2024-01-15T09:19:48;18.67;;;6.10;;
6513;SDS011;3290;47.716;9.070;2024-01-15T09:22:14;15.60;;;6.90;;
6513;SDS011;3290;47.716;9.070;2024-01-15T09:24:42;9.70;;;3.70;;
6513;SDS011;3290;47.716;9.070;2024-01-15T09:27:07;10.23;;;5.13;;
6513;SDS011;3290;47.716;9.070;2024-01-15T09:29:33;14.27;;;4.97;;
6513;SDS011;3290;47.716;9.070;2024-01-15T09:31:58;20.43;;;8.90;;
6513;SDS011;3290;47.716;9.070;2024-01-15T09:34:24;20.30;;;7.80;;
6513;SDS011;3290;47.716;9.070;2024-01-15T09:36:49;22.10;;;7.07;;
6513;SDS011;3290;47.716;9.070;2024-01-15T09:39:14;12.17;;;6.07;;
6513;SDS011;3290;47.716;9.070;2024-01-15T09:41:40;21.90;;;6.77;;
6513;SDS011;3290;47.716;9.070;2024-01-15T09:44:06;19.30;;;6.40;;
6513;SDS011;3290;47.716;9.070;2024-01-15T09:46:33;17.70;;;8.23;;
6513;SDS011;3290;47.716;9.070;2024-01-15T09:48:59;28.63;;;8.70;;
6513;SDS011;3290;47.716;9.070;2024-01-15T09:51:25;12.60;;;6.67;;
6513;SDS011;3290;47.716;9.070;2024-01-15T09:53:50;20.37;;;8.83;;
6513;SDS011;3290;47.716;9.070;2024-01-15T09:56:17;22.20;;;9.70;;
6513;SDS011;3290;47.716;9.070;2024-01-15T09:58:43;27.03;;;8.47;;
6513;SDS011;3290;47.716;9.070;2024-01-15T10:01:09;15.73;;;7.23;;
6513;SDS011;3290;47.716;9.070;2024-01-15T10:03:36;18.17;;;7.67;;
6513;SDS011;3290;47.716;9.070;2024-01-15T10:06:03;16.37;;;7.10;;
6513;SDS011;3290;47.716;9.070;2024-01-15T10:08:29;20.17;;;7.20;;
6513;SDS011;3290;47.716;9.070;2024-01-15T10:10:54;21.97;;;8.83;;
6513;SDS011;3290;47.716;9.070;2024-01-15T10:13:20;17.17;;;8.37;;
6513;SDS011;3290;47.716;9.070;2024-01-15T10:15:46;20.00;;;8.10;;
6513;SDS011;3290;47.716;9.070;2024-01-15T10:18:14;20.97;;;7.90;;
6513;SDS011;3290;47.716;9.070;2024-01-15T10:20:40;18.23;;;7.97;;
6513;SDS011;3290;47.716;9.070;2024-01-15T10:23:05;17.13;;;6.87;;
6513;SDS011;3290;47.716;9.070;2024-01-15T10:25:30;17.83;;;7.93;;
6513;SDS011;3290;47.716;9.070;2024-01-15T10:27:59;21.23;;;8.53;;
6513;SDS011;3290;47.716;9.070;2024-01-15T10:30:28;16.50;;;5.90;;
6513;SDS011;3290;47.716;9.070;2024-01-15T10:32:57;20.30;;;6.17;;
6513;SDS011;3290;47.716;9.070;2024-01-15T10:35:26;7.63;;;4.43;;
6513;SDS011;3290;47.716;9.070;2024-01-15T10:38:01;13.53;;;5.53;;
6513;SDS011;3290;47.716;9.070;2024-01-15T10:40:28;14.20;;;6.63;;
6513;SDS011;3290;47.716;9.070;2024-01-15T10:42:54;11.17;;;5.10;;
6513;SDS011;3290;47.716;9.070;2024-01-15T10:45:20;11.23;;;5.23;;
6513;SDS011;3290;47.716;9.070;2024-01-15T10:47:45;20.67;;;7.43;;
6513;SDS011;3290;47.716;9.070;2024-01-15T10:50:11;12.67;;;5.93;;
6513;SDS011;3290;47.716;9.070;2024-01-15T10:52:37;6.83;;;3.60;;
6513;SDS011;3290;47.716;9.070;2024-01-15T10:55:08;8.50;;;4.40;;
6513;SDS011;3290;47.716;9.070;2024-01-15T10:57:34;16.87;;;5.17;;
6513;SDS011;3290;47.716;9.070;2024-01-15T11:00:04;11.70;;;4.80;;
6513;SDS011;3290;47.716;9.070;2024-01-15T11:02:31;10.87;;;5.33;;
6513;SDS011;3290;47.716;9.070;2024-01-15T11:04:59;7.70;;;4.23;;
6513;SDS011;3290;47.716;9.070;2024-01-15T11:07:25;13.93;;;5.60;;
6513;SDS011;3290;47.716;9.070;2024-01-15T11:09:51;13.57;;;5.53;;
6513;SDS011;3290;47.716;9.070;2024-01-15T11:12:16;10.83;;;5.33;;
6513;SDS011;3290;47.716;9.070;2024-01-15T11:14:46;11.97;;;3.83;;
6513;SDS011;3290;47.716;9.070;2024-01-15T11:17:13;9.30;;;4.07;;
6513;SDS011;3290;47.716;9.070;2024-01-15T11:22:08;13.70;;;6.70;;
6513;SDS011;3290;47.716;9.070;2024-01-15T11:27:01;6.87;;;3.43;;
6513;SDS011;3290;47.716;9.070;2024-01-15T11:31:56;11.90;;;4.27;;
6513;SDS011;3290;47.716;9.070;2024-01-15T11:34:49;9.80;;;5.00;;
6513;SDS011;3290;47.716;9.070;2024-01-15T11:37:26;8.77;;;3.90;;
6513;SDS011;3290;47.716;9.070;2024-01-15T11:39:53;7.70;;;3.63;;
6513;SDS011;3290;47.716;9.070;2024-01-15T11:42:20;9.10;;;4.57;;
6513;SDS011;3290;47.716;9.070;2024-01-15T11:44:47;17.50;;;5.03;;
6513;SDS011;3290;47.716;9.070;2024-01-15T11:47:13;7.73;;;4.03;;
6513;SDS011;3290;47.716;9.070;2024-01-15T11:52:33;8.80;;;4.30;;
6513;SDS011;3290;47.716;9.070;2024-01-15T11:55:17;15.20;;;5.10;;
6513;SDS011;3290;47.716;9.070;2024-01-15T11:57:50;9.40;;;4.77;;
6513;SDS011;3290;47.716;9.070;2024-01-15T12:00:16;7.27;;;3.80;;
6513;SDS011;3290;47.716;9.070;2024-01-15T12:02:44;15.93;;;6.43;;
6513;SDS011;3290;47.716;9.070;2024-01-15T12:05:11;9.27;;;4.43;;
6513;SDS011;3290;47.716;9.070;2024-01-15T12:07:41;9.40;;;5.03;;
6513;SDS011;3290;47.716;9.070;2024-01-15T12:10:14;8.03;;;3.33;;
6513;SDS011;3290;47.716;9.070;2024-01-15T12:12:54;11.83;;;5.40;;
6513;SDS011;3290;47.716;9.070;2024-01-15T12:15:24;10.80;;;5.67;;
6513;SDS011;3290;47.716;9.070;2024-01-15T12:17:50;10.40;;;5.63;;
6513;SDS011;3290;47.716;9.070;2024-01-15T12:20:16;4.70;;;2.57;;
6513;SDS011;3290;47.716;9.070;2024-01-15T12:22:42;9.63;;;4.73;;
6513;SDS011;3290;47.716;9.070;2024-01-15T12:25:08;11.77;;;5.00;;
6513;SDS011;3290;47.716;9.070;2024-01-15T12:27:34;10.03;;;4.17;;
6513;SDS011;3290;47.716;9.070;2024-01-15T12:29:59;11.30;;;4.60;;
6513;SDS011;3290;47.716;9.070;2024-01-15T12:32:24;11.03;;;5.53;;
6513;SDS011;3290;47.716;9.070;2024-01-15T12:34:50;7.10;;;3.90;;
6513;SDS011;3290;47.716;9.070;2024-01-15T12:37:18;6.93;;;3.47;;
6513;SDS011;3290;47.716;9.070;2024-01-15T12:39:47;6.67;;;3.10;;
6513;SDS011;3290;47.716;9.070;2024-01-15T12:42:16;5.87;;;3.47;;
6513;SDS011;3290;47.716;9.070;2024-01-15T12:44:42;9.40;;;4.47;;
6513;SDS011;3290;47.716;9.070;2024-01-15T12:47:10;7.70;;;3.80;;
6513;SDS011;3290;47.716;9.070;2024-01-15T12:49:36;6.97;;;4.30;;
6513;SDS011;3290;47.716;9.070;2024-01-15T12:52:02;5.10;;;2.60;;
6513;SDS011;3290;47.716;9.070;2024-01-15T12:54:28;7.10;;;3.40;;
6513;SDS011;3290;47.716;9.070;2024-01-15T12:56:53;5.20;;;3.80;;
6513;SDS011;3290;47.716;9.070;2024-01-15T12:59:19;4.77;;;2.73;;
6513;SDS011;3290;47.716;9.070;2024-01-15T13:01:45;6.60;;;3.50;;
6513;SDS011;3290;47.716;9.070;2024-01-15T13:04:11;5.40;;;3.27;;
6513;SDS011;3290;47.716;9.070;2024-01-15T13:06:45;4.20;;;3.10;;
6513;SDS011;3290;47.716;9.070;2024-01-15T13:09:10;10.07;;;4.27;;
6513;SDS011;3290;47.716;9.070;2024-01-15T13:11:36;4.50;;;2.97;;
6513;SDS011;3290;47.716;9.070;2024-01-15T13:14:02;4.70;;;2.77;;
6513;SDS011;3290;47.716;9.070;2024-01-15T13:16:27;3.47;;;2.50;;
6513;SDS011;3290;47.716;9.070;2024-01-15T13:18:54;4.27;;;3.10;;
6513;SDS011;3290;47.716;9.070;2024-01-15T13:21:19;7.30;;;3.43;;
6513;SDS011;3290;47.716;9.070;2024-01-15T13:23:45;6.00;;;3.80;;
6513;SDS011;3290;47.716;9.070;2024-01-15T13:26:11;2.97;;;2.37;;
6513;SDS011;3290;47.716;9.070;2024-01-15T13:28:37;4.37;;;2.93;;
6513;SDS011;3290;47.716;9.070;2024-01-15T13:31:02;5.47;;;4.00;;
6513;SDS011;3290;47.716;9.070;2024-01-15T13:33:29;4.83;;;2.53;;
6513;SDS011;3290;47.716;9.070;2024-01-15T13:35:55;3.43;;;2.73;;
6513;SDS011;3290;47.716;9.070;2024-01-15T13:38:20;7.97;;;3.17;;
6513;SDS011;3290;47.716;9.070;2024-01-15T13:40:46;9.90;;;4.67;;
6513;SDS011;3290;47.716;9.070;2024-01-15T13:43:11;4.33;;;2.50;;
6513;SDS011;3290;47.716;9.070;2024-01-15T13:45:39;7.50;;;3.10;;
6513;SDS011;3290;47.716;9.070;2024-01-15T13:48:04;3.90;;;2.90;;
6513;SDS011;3290;47.716;9.070;2024-01-15T13:50:30;12.57;;;3.93;;
6513;SDS011;3290;47.716;9.070;2024-01-15T13:52:56;7.30;;;3.60;;
6513;SDS011;3290;47.716;9.070;2024-01-15T13:55:22;4.97;;;3.40;;
6513;SDS011;3290;47.716;9.070;2024-01-15T13:57:47;8.10;;;4.00;;
6513;SDS011;3290;47.716;9.070;2024-01-15T14:00:13;9.57;;;3.63;;
6513;SDS011;3290;47.716;9.070;2024-01-15T14:02:43;5.47;;;3.20;;
6513;SDS011;3290;47.716;9.070;2024-01-15T14:05:09;12.33;;;4.50;;
6513;SDS011;3290;47.716;9.070;2024-01-15T14:07:34;5.80;;;3.70;;
6513;SDS011;3290;47.716;9.070;2024-01-15T14:10:00;9.97;;;4.90;;
6513;SDS011;3290;47.716;9.070;2024-01-15T14:12:25;5.90;;;3.50;;
6513;SDS011;3290;47.716;9.070;2024-01-15T14:14:51;8.67;;;4.47;;
6513;SDS011;3290;47.716;9.070;2024-01-15T14:17:17;8.13;;;5.00;;
6513;SDS011;3290;47.716;9.070;2024-01-15T14:19:42;4.07;;;2.90;;
6513;SDS011;3290;47.716;9.070;2024-01-15T14:22:08;12.20;;;3.50;;
6513;SDS011;3290;47.716;9.070;2024-01-15T14:24:33;8.10;;;3.67;;
6513;SDS011;3290;47.716;9.070;2024-01-15T14:26:59;12.63;;;5.17;;
6513;SDS011;3290;47.716;9.070;2024-01-15T14:29:24;9.57;;;4.70;;
6513;SDS011;3290;47.716;9.070;2024-01-15T14:31:51;13.60;;;6.10;;
6513;SDS011;3290;47.716;9.070;2024-01-15T14:34:17;10.50;;;5.87;;
6513;SDS011;3290;47.716;9.070;2024-01-15T14:36:43;10.33;;;5.00;;
6513;SDS011;3290;47.716;9.070;2024-01-15T14:39:09;9.10;;;5.87;;
6513;SDS011;3290;47.716;9.070;2024-01-15T14:41:34;15.90;;;8.07;;
6513;SDS011;3290;47.716;9.070;2024-01-15T14:44:00;11.90;;;7.20;;
6513;SDS011;3290;47.716;9.070;2024-01-15T14:46:25;10.60;;;5.60;;
6513;SDS011;3290;47.716;9.070;2024-01-15T14:48:52;11.70;;;6.07;;
6513;SDS011;3290;47.716;9.070;2024-01-15T14:51:18;14.57;;;6.43;;
6513;SDS011;3290;47.716;9.070;2024-01-15T14:53:43;16.97;;;7.10;;
6513;SDS011;3290;47.716;9.070;2024-01-15T14:56:09;11.03;;;6.47;;
6513;SDS011;3290;47.716;9.070;2024-01-15T14:58:34;12.17;;;6.47;;
6513;SDS011;3290;47.716;9.070;2024-01-15T15:00:59;14.40;;;7.03;;
6513;SDS011;3290;47.716;9.070;2024-01-15T15:03:25;14.23;;;5.33;;
6513;SDS011;3290;47.716;9.070;2024-01-15T15:05:50;23.67;;;8.37;;
6513;SDS011;3290;47.716;9.070;2024-01-15T15:08:16;18.03;;;7.87;;